Ramer, Alabama
Current Conditions -  °F | °C
As of 2:53 PM on Sunday 21 Dec 2014 (Local Time) from KTOI Reporting Station
Overcast Overcast  
Wind Chill: 56°   Ceiling: 1300
Heat Index: 56°   Visibility: 10mi
Dew Point: 50°   Wind: 5mph
Humidity: 80%   Direction: 70°ENE
Pressure: 30.05"   Gusts: NA
Location:  32.05°N, 86.22°W
Report Text: KTOI 212053Z AUTO 07004KT 10SM OVC013 13/10 A3005 RMK AO2 SLP174 T01330100 56017
Loading
Personal Weather Stations






























Interactive Weather Map New forecast layout! Learn more

10-Day Weather Forecast

Advertisements
Track Severe Weather on mobile